Time;durP1;ratioP1;P1;durP2;ratioP2;P2;SDS_P1;SDS_P2;PMS_P1;PMS_P2;Temp;Humidity;BMP_temperature;BMP_pressure;BME280_temperature;BME280_humidity;BME280_pressure;Samples;Min_cycle;Max_cycle;Signal;HPM_P1;HPM_P2
2023/02/26 00:00:14;;;;;;;7.63;1.50;;;;;;;;;;5057214;28;20197;-67
2023/02/26 00:02:41;;;;;;;4.10;1.13;;;;;;;;;;5052341;28;20217;-67
2023/02/26 00:05:07;;;;;;;5.40;1.27;;;;;;;;;;5055344;28;20366;-67
2023/02/26 00:07:33;;;;;;;4.37;1.17;;;;;;;;;;5055352;28;20186;-67
2023/02/26 00:10:00;;;;;;;4.53;1.10;;;;;;;;;;5060676;28;20181;-67
2023/02/26 00:12:25;;;;;;;3.60;1.40;;;;;;;;;;5057267;28;20202;-68
2023/02/26 00:14:51;;;;;;;6.60;1.70;;;;;;;;;;5058591;28;20704;-68
2023/02/26 00:17:25;;;;;;;6.03;1.50;;;;;;;;;;5061317;28;20682;-68
2023/02/26 00:19:51;;;;;;;3.70;1.40;;;;;;;;;;5050503;28;20203;-68
2023/02/26 00:22:17;;;;;;;4.60;1.10;;;;;;;;;;5049931;28;20262;-68
2023/02/26 00:24:42;;;;;;;3.80;1.27;;;;;;;;;;5051179;28;20293;-68
2023/02/26 00:27:10;;;;;;;4.17;1.20;;;;;;;;;;5052251;28;20188;-68
2023/02/26 00:29:36;;;;;;;6.63;1.07;;;;;;;;;;5059161;28;20290;-68
2023/02/26 00:32:02;;;;;;;4.40;1.03;;;;;;;;;;5061820;28;20806;-68
2023/02/26 00:34:27;;;;;;;11.30;1.20;;;;;;;;;;5067375;28;20189;-68
2023/02/26 00:37:11;;;;;;;4.60;1.27;;;;;;;;;;5055838;28;20213;-69
2023/02/26 00:39:49;;;;;;;3.17;1.00;;;;;;;;;;5064670;28;20500;-69
2023/02/26 00:42:14;;;;;;;4.13;1.60;;;;;;;;;;5054443;28;20204;-69
2023/02/26 00:44:40;;;;;;;4.43;1.23;;;;;;;;;;5052564;28;20185;-68
2023/02/26 00:47:27;;;;;;;2.77;1.30;;;;;;;;;;5059194;28;20272;-68
2023/02/26 00:50:04;;;;;;;4.00;1.43;;;;;;;;;;5052191;28;20578;-68
2023/02/26 00:52:48;;;;;;;4.83;1.10;;;;;;;;;;5059272;28;20196;-68
2023/02/26 00:55:14;;;;;;;6.03;1.03;;;;;;;;;;5049699;28;20610;-68
2023/02/26 00:57:39;;;;;;;6.20;1.07;;;;;;;;;;5048279;28;20193;-68
2023/02/26 01:00:06;;;;;;;5.53;1.10;;;;;;;;;;5055541;28;20574;-68
2023/02/26 01:02:34;;;;;;;4.40;1.00;;;;;;;;;;5054877;28;20224;-68
2023/02/26 01:04:59;;;;;;;6.30;0.90;;;;;;;;;;5048375;28;20276;-68
2023/02/26 01:07:27;;;;;;;4.90;0.93;;;;;;;;;;5058903;28;20268;-68
2023/02/26 01:09:53;;;;;;;4.50;1.13;;;;;;;;;;5054941;28;20192;-68
2023/02/26 01:12:19;;;;;;;4.33;0.80;;;;;;;;;;5051461;28;20234;-68
2023/02/26 01:14:46;;;;;;;6.23;1.27;;;;;;;;;;5061064;28;20205;-68
2023/02/26 01:17:28;;;;;;;4.23;1.10;;;;;;;;;;5051430;28;20800;-68
2023/02/26 01:20:04;;;;;;;3.80;0.90;;;;;;;;;;5068837;28;20196;-68
2023/02/26 01:22:41;;;;;;;8.10;1.10;;;;;;;;;;5055392;28;20192;-68
2023/02/26 01:25:10;;;;;;;7.97;1.17;;;;;;;;;;5067646;28;20564;-67
2023/02/26 01:27:36;;;;;;;10.27;1.17;;;;;;;;;;5060079;28;20226;-68
2023/02/26 01:30:03;;;;;;;4.13;0.80;;;;;;;;;;5060272;28;20720;-68
2023/02/26 01:32:50;;;;;;;6.40;1.90;;;;;;;;;;5054972;28;20193;-68
2023/02/26 01:35:51;;;;;;;7.00;1.10;;;;;;;;;;5049106;28;20291;-68
2023/02/26 01:38:30;;;;;;;3.73;0.90;;;;;;;;;;5052010;28;20192;-68
2023/02/26 01:41:14;;;;;;;5.87;1.00;;;;;;;;;;5065146;28;20588;-68
2023/02/26 01:44:07;;;;;;;7.27;1.20;;;;;;;;;;5055835;28;20185;-68
2023/02/26 01:46:38;;;;;;;5.73;0.77;;;;;;;;;;5064359;28;20223;-69
2023/02/26 01:49:05;;;;;;;9.47;1.00;;;;;;;;;;5063871;28;20217;-68
2023/02/26 01:51:49;;;;;;;3.33;1.00;;;;;;;;;;5053235;28;20582;-68
2023/02/26 01:54:20;;;;;;;6.77;1.10;;;;;;;;;;5066269;28;20195;-68
2023/02/26 01:56:50;;;;;;;4.63;0.73;;;;;;;;;;5058846;28;20745;-68
2023/02/26 01:59:23;;;;;;;5.63;0.97;;;;;;;;;;5047961;28;20281;-68
2023/02/26 02:01:53;;;;;;;6.70;1.20;;;;;;;;;;5047594;28;20698;-68
2023/02/26 02:04:19;;;;;;;1.93;0.63;;;;;;;;;;5060226;28;20275;-68
2023/02/26 02:06:45;;;;;;;4.47;1.10;;;;;;;;;;5058065;28;20263;-68
2023/02/26 02:09:11;;;;;;;4.27;0.80;;;;;;;;;;5057192;28;20284;-68
2023/02/26 02:11:47;;;;;;;4.97;1.13;;;;;;;;;;5049539;28;20251;-68
2023/02/26 02:14:40;;;;;;;10.03;1.00;;;;;;;;;;5067440;28;20185;-68
2023/02/26 02:17:18;;;;;;;4.37;0.87;;;;;;;;;;5062255;28;20652;-69
2023/02/26 02:20:15;;;;;;;5.30;0.83;;;;;;;;;;5056687;28;20200;-68
2023/02/26 02:22:58;;;;;;;4.77;1.10;;;;;;;;;;5050500;28;20189;-68
2023/02/26 02:25:39;;;;;;;1.00;0.60;;;;;;;;;;5047484;28;20181;-68
2023/02/26 02:28:41;;;;;;;6.87;1.40;;;;;;;;;;5060457;28;20220;-68
2023/02/26 02:31:14;;;;;;;6.57;1.10;;;;;;;;;;5056483;28;20749;-68
2023/02/26 02:34:03;;;;;;;5.63;0.90;;;;;;;;;;5052176;28;20185;-68
2023/02/26 02:36:47;;;;;;;5.47;1.20;;;;;;;;;;5048214;28;20227;-69
2023/02/26 02:39:19;;;;;;;2.37;0.70;;;;;;;;;;5048205;28;20645;-69
2023/02/26 02:41:52;;;;;;;8.37;1.17;;;;;;;;;;5058817;28;20387;-68
2023/02/26 02:44:21;;;;;;;4.17;1.03;;;;;;;;;;5066074;28;20585;-68
2023/02/26 02:46:51;;;;;;;6.53;0.90;;;;;;;;;;5050020;28;20227;-68
2023/02/26 02:49:22;;;;;;;5.80;0.90;;;;;;;;;;5053514;28;20599;-68
2023/02/26 02:51:54;;;;;;;5.93;0.97;;;;;;;;;;5053848;28;20196;-67
2023/02/26 02:54:41;;;;;;;5.03;1.10;;;;;;;;;;5055184;28;20188;-68
2023/02/26 02:57:20;;;;;;;6.70;0.93;;;;;;;;;;5053376;28;20295;-68
2023/02/26 02:59:50;;;;;;;7.93;1.03;;;;;;;;;;5053422;28;20180;-67
2023/02/26 03:02:27;;;;;;;4.17;0.70;;;;;;;;;;5064646;28;20291;-69
2023/02/26 03:04:53;;;;;;;7.63;1.40;;;;;;;;;;5055300;28;20192;-69
2023/02/26 03:07:18;;;;;;;3.83;0.80;;;;;;;;;;5065235;28;20552;-68
2023/02/26 03:09:43;;;;;;;3.77;0.67;;;;;;;;;;5068282;28;20337;-69
2023/02/26 03:12:09;;;;;;;4.37;0.97;;;;;;;;;;5059262;28;20636;-68
2023/02/26 03:14:35;;;;;;;4.40;0.83;;;;;;;;;;5058050;28;20217;-69
2023/02/26 03:17:28;;;;;;;2.13;0.60;;;;;;;;;;5051570;28;20266;-68
2023/02/26 03:20:09;;;;;;;5.93;1.10;;;;;;;;;;5050073;28;20191;-68
2023/02/26 03:22:53;;;;;;;4.23;0.60;;;;;;;;;;5062246;28;20192;-68
2023/02/26 03:25:26;;;;;;;4.23;0.70;;;;;;;;;;5059761;28;20185;-68
2023/02/26 03:27:56;;;;;;;5.70;1.07;;;;;;;;;;5066374;28;20530;-68
2023/02/26 03:30:32;;;;;;;5.30;0.60;;;;;;;;;;5067531;28;20325;-68
2023/02/26 03:33:16;;;;;;;5.07;0.80;;;;;;;;;;5055226;28;20280;-68
2023/02/26 03:35:50;;;;;;;3.40;0.53;;;;;;;;;;5055093;28;20256;-68
2023/02/26 03:38:39;;;;;;;2.47;0.73;;;;;;;;;;5052134;28;20193;-68
2023/02/26 03:41:09;;;;;;;5.93;1.17;;;;;;;;;;5057136;28;20566;-68
2023/02/26 03:43:59;;;;;;;2.33;0.57;;;;;;;;;;5064896;28;20273;-68
2023/02/26 03:46:40;;;;;;;6.67;0.60;;;;;;;;;;5061620;28;20236;-69
2023/02/26 03:49:11;;;;;;;1.50;0.70;;;;;;;;;;5058201;28;20220;-68
2023/02/26 03:51:38;;;;;;;4.40;0.73;;;;;;;;;;5058057;28;20653;-68
2023/02/26 03:54:19;;;;;;;5.87;0.90;;;;;;;;;;5053421;28;20197;-68
2023/02/26 03:56:47;;;;;;;4.50;0.67;;;;;;;;;;5052648;28;20263;-68
2023/02/26 03:59:14;;;;;;;1.37;0.50;;;;;;;;;;5061742;28;20228;-68
2023/02/26 04:01:44;;;;;;;3.47;0.87;;;;;;;;;;5058136;28;20205;-68
2023/02/26 04:04:16;;;;;;;7.83;0.63;;;;;;;;;;5056117;28;20191;-68
2023/02/26 04:06:43;;;;;;;6.77;0.83;;;;;;;;;;5069324;28;20548;-68
2023/02/26 04:09:08;;;;;;;6.83;0.63;;;;;;;;;;5053770;28;20657;-68
2023/02/26 04:11:35;;;;;;;3.17;0.63;;;;;;;;;;5061032;28;20504;-68
2023/02/26 04:14:00;;;;;;;11.10;0.80;;;;;;;;;;5049584;28;20664;-68
2023/02/26 04:16:26;;;;;;;3.37;0.70;;;;;;;;;;5054574;28;20221;-69
2023/02/26 04:18:51;;;;;;;9.03;1.00;;;;;;;;;;5050917;28;20200;-68
2023/02/26 04:21:20;;;;;;;4.27;0.77;;;;;;;;;;5052967;28;20189;-68
2023/02/26 04:23:45;;;;;;;5.87;0.60;;;;;;;;;;5054206;28;20266;-68
2023/02/26 04:26:12;;;;;;;12.23;1.20;;;;;;;;;;5065721;28;20684;-68
2023/02/26 04:28:38;;;;;;;6.63;0.80;;;;;;;;;;5055321;28;20273;-68
2023/02/26 04:31:05;;;;;;;9.53;1.33;;;;;;;;;;5068889;28;20260;-68
2023/02/26 04:33:32;;;;;;;0.93;0.40;;;;;;;;;;5055753;28;20411;-68
2023/02/26 04:35:57;;;;;;;6.80;0.70;;;;;;;;;;5057047;28;20205;-68
2023/02/26 04:38:23;;;;;;;10.73;1.13;;;;;;;;;;5055815;28;20186;-68
2023/02/26 04:40:49;;;;;;;1.83;0.40;;;;;;;;;;5053147;28;20240;-68
2023/02/26 04:43:15;;;;;;;9.03;0.80;;;;;;;;;;5063413;28;20182;-68
2023/02/26 04:45:40;;;;;;;3.20;0.70;;;;;;;;;;5048988;28;20240;-68
2023/02/26 04:48:05;;;;;;;5.53;0.73;;;;;;;;;;5055613;28;20276;-68
2023/02/26 04:50:31;;;;;;;3.37;0.70;;;;;;;;;;5057742;28;20189;-68
2023/02/26 04:52:56;;;;;;;5.27;0.83;;;;;;;;;;5055054;28;20288;-68
2023/02/26 04:55:21;;;;;;;6.17;0.90;;;;;;;;;;5049095;28;20257;-69
2023/02/26 04:57:47;;;;;;;4.23;0.70;;;;;;;;;;5051701;28;20200;-68
2023/02/26 05:00:14;;;;;;;1.87;0.50;;;;;;;;;;5056098;28;20295;-68
2023/02/26 05:02:39;;;;;;;4.17;0.67;;;;;;;;;;5060750;28;20536;-68
2023/02/26 05:05:06;;;;;;;3.30;0.50;;;;;;;;;;5053735;28;20195;-69
2023/02/26 05:07:31;;;;;;;8.93;1.07;;;;;;;;;;5051633;28;20571;-69
2023/02/26 05:09:56;;;;;;;2.00;0.63;;;;;;;;;;5049167;28;20200;-68
2023/02/26 05:12:22;;;;;;;5.73;0.60;;;;;;;;;;5059657;28;20238;-68
2023/02/26 05:14:47;;;;;;;4.27;0.70;;;;;;;;;;5060254;28;20700;-68
2023/02/26 05:17:13;;;;;;;3.00;0.50;;;;;;;;;;5050952;28;20405;-68
2023/02/26 05:19:38;;;;;;;7.30;0.50;;;;;;;;;;5054371;28;20208;-68
2023/02/26 05:22:03;;;;;;;4.13;0.67;;;;;;;;;;5046646;28;20204;-68
2023/02/26 05:24:29;;;;;;;3.70;0.57;;;;;;;;;;5060899;28;20263;-68
2023/02/26 05:26:54;;;;;;;2.70;0.60;;;;;;;;;;5055692;28;20268;-68
2023/02/26 05:29:20;;;;;;;3.77;0.60;;;;;;;;;;5060395;28;20300;-68
2023/02/26 05:31:45;;;;;;;5.93;0.43;;;;;;;;;;5059311;28;20239;-68
2023/02/26 05:34:10;;;;;;;4.27;1.40;;;;;;;;;;5062619;28;20216;-68
2023/02/26 05:36:36;;;;;;;4.27;0.60;;;;;;;;;;5066530;28;20214;-68
2023/02/26 05:39:01;;;;;;;4.20;0.37;;;;;;;;;;5063961;28;20269;-68
2023/02/26 05:41:27;;;;;;;3.67;0.87;;;;;;;;;;5056133;28;20186;-68
2023/02/26 05:43:52;;;;;;;6.27;0.60;;;;;;;;;;5063502;28;20279;-68
2023/02/26 05:46:17;;;;;;;10.13;1.13;;;;;;;;;;5048465;28;20278;-68
2023/02/26 05:48:43;;;;;;;3.77;0.63;;;;;;;;;;5065491;28;20574;-68
2023/02/26 05:51:08;;;;;;;5.67;1.10;;;;;;;;;;5057449;28;20239;-68
2023/02/26 05:53:34;;;;;;;4.53;0.70;;;;;;;;;;5058963;28;20193;-68
2023/02/26 05:55:59;;;;;;;8.53;1.10;;;;;;;;;;5048566;28;20213;-68
2023/02/26 05:58:25;;;;;;;6.20;0.97;;;;;;;;;;5047811;28;20208;-66
2023/02/26 06:00:50;;;;;;;5.67;0.90;;;;;;;;;;5052341;28;20220;-67
2023/02/26 06:03:16;;;;;;;3.80;0.43;;;;;;;;;;5048315;28;20272;-69
2023/02/26 06:05:41;;;;;;;3.57;0.70;;;;;;;;;;5058015;28;20189;-69
2023/02/26 06:08:06;;;;;;;8.50;0.80;;;;;;;;;;5066006;28;20236;-68
2023/02/26 06:10:32;;;;;;;3.43;0.60;;;;;;;;;;5049354;28;20220;-68
2023/02/26 06:12:58;;;;;;;7.80;0.83;;;;;;;;;;5047133;28;20220;-69
2023/02/26 06:15:23;;;;;;;5.17;0.70;;;;;;;;;;5046611;28;20193;-69
2023/02/26 06:17:49;;;;;;;6.70;0.67;;;;;;;;;;5054842;28;20265;-68
2023/02/26 06:20:14;;;;;;;5.73;0.77;;;;;;;;;;5051980;28;20195;-67
2023/02/26 06:22:40;;;;;;;3.87;0.70;;;;;;;;;;5046257;28;20186;-67
2023/02/26 06:25:05;;;;;;;2.87;0.80;;;;;;;;;;5053432;28;20258;-67
2023/02/26 06:27:31;;;;;;;8.63;0.80;;;;;;;;;;5045730;28;20177;-67
2023/02/26 06:29:56;;;;;;;4.70;1.00;;;;;;;;;;5053295;28;20277;-67
2023/02/26 06:32:21;;;;;;;4.53;0.60;;;;;;;;;;5059406;28;20180;-67
2023/02/26 06:34:47;;;;;;;2.70;0.60;;;;;;;;;;5047101;28;20178;-67
2023/02/26 06:37:12;;;;;;;7.37;0.70;;;;;;;;;;5046055;28;20493;-67
2023/02/26 06:39:38;;;;;;;7.33;0.63;;;;;;;;;;5064070;28;20195;-67
2023/02/26 06:42:04;;;;;;;3.50;0.50;;;;;;;;;;5056462;28;20205;-67
2023/02/26 06:44:29;;;;;;;5.30;0.60;;;;;;;;;;5050865;28;20692;-67
2023/02/26 06:46:54;;;;;;;5.73;0.57;;;;;;;;;;5052206;28;20654;-68
2023/02/26 06:49:20;;;;;;;2.17;0.30;;;;;;;;;;5055854;28;20232;-67
2023/02/26 06:51:45;;;;;;;2.47;0.43;;;;;;;;;;5055674;28;20212;-67
2023/02/26 06:54:10;;;;;;;9.50;0.97;;;;;;;;;;5051496;28;20185;-68
2023/02/26 06:56:36;;;;;;;5.53;0.60;;;;;;;;;;5051139;28;20213;-68
2023/02/26 06:59:01;;;;;;;8.93;0.90;;;;;;;;;;5057191;28;20184;-68
2023/02/26 07:01:27;;;;;;;3.00;0.50;;;;;;;;;;5050915;28;20266;-67
2023/02/26 07:03:52;;;;;;;5.20;0.80;;;;;;;;;;5056372;28;20200;-68
2023/02/26 07:06:17;;;;;;;4.67;0.60;;;;;;;;;;5055388;28;20544;-68
2023/02/26 07:08:43;;;;;;;9.50;0.60;;;;;;;;;;5056916;28;20272;-68
2023/02/26 07:11:08;;;;;;;7.33;0.90;;;;;;;;;;5054931;28;20245;-68
2023/02/26 07:13:36;;;;;;;4.23;0.47;;;;;;;;;;5050975;28;20223;-67
2023/02/26 07:16:01;;;;;;;2.63;0.67;;;;;;;;;;5054656;28;20562;-67
2023/02/26 07:18:27;;;;;;;4.73;0.63;;;;;;;;;;5058163;28;20192;-67
2023/02/26 07:20:52;;;;;;;6.93;1.33;;;;;;;;;;5055597;28;20189;-67
2023/02/26 07:23:17;;;;;;;3.03;0.80;;;;;;;;;;5064427;28;20210;-68
2023/02/26 07:25:43;;;;;;;3.77;1.00;;;;;;;;;;5063032;28;20188;-70
2023/02/26 07:28:08;;;;;;;3.73;0.60;;;;;;;;;;5057447;28;20596;-72
2023/02/26 07:30:34;;;;;;;8.90;1.10;;;;;;;;;;5056456;28;20225;-68
2023/02/26 07:32:59;;;;;;;2.20;0.33;;;;;;;;;;5060274;28;20294;-68
2023/02/26 07:35:25;;;;;;;8.67;0.63;;;;;;;;;;5062349;28;20197;-68
2023/02/26 07:37:51;;;;;;;4.90;0.90;;;;;;;;;;5068265;28;20800;-68
2023/02/26 07:40:17;;;;;;;9.33;1.07;;;;;;;;;;5061800;28;20201;-68
2023/02/26 07:42:42;;;;;;;2.13;0.60;;;;;;;;;;5064473;28;20675;-68
2023/02/26 07:45:08;;;;;;;7.20;0.50;;;;;;;;;;5059698;28;20306;-68
2023/02/26 07:47:34;;;;;;;4.63;0.77;;;;;;;;;;5055987;28;20671;-69
2023/02/26 07:49:59;;;;;;;7.10;1.10;;;;;;;;;;5053031;28;20312;-69
2023/02/26 07:52:25;;;;;;;2.73;0.60;;;;;;;;;;5052508;28;20584;-69
2023/02/26 07:54:51;;;;;;;6.53;0.60;;;;;;;;;;5057677;28;20197;-68
2023/02/26 07:57:17;;;;;;;3.10;0.70;;;;;;;;;;5056301;28;20203;-68
2023/02/26 07:59:43;;;;;;;11.77;1.10;;;;;;;;;;5054231;28;20716;-68
2023/02/26 08:02:09;;;;;;;5.23;0.40;;;;;;;;;;5050097;28;20181;-68
2023/02/26 08:04:35;;;;;;;2.70;0.60;;;;;;;;;;5052733;28;20212;-68
2023/02/26 08:07:00;;;;;;;9.93;1.00;;;;;;;;;;5054969;28;20180;-68
2023/02/26 08:09:26;;;;;;;5.93;1.00;;;;;;;;;;5052506;28;20216;-68
2023/02/26 08:11:51;;;;;;;4.70;0.70;;;;;;;;;;5052814;28;20181;-68
2023/02/26 08:14:17;;;;;;;2.53;0.77;;;;;;;;;;5051137;28;20228;-68
2023/02/26 08:16:42;;;;;;;12.47;0.93;;;;;;;;;;5053345;28;20205;-68
2023/02/26 08:19:08;;;;;;;1.83;0.80;;;;;;;;;;5052623;28;20178;-69
2023/02/26 08:21:33;;;;;;;3.20;0.53;;;;;;;;;;5048671;28;21500;-69
2023/02/26 08:23:59;;;;;;;2.40;0.80;;;;;;;;;;5051828;28;20338;-68
2023/02/26 08:26:25;;;;;;;1.77;0.50;;;;;;;;;;5054671;28;20181;-69
2023/02/26 08:28:50;;;;;;;2.53;0.67;;;;;;;;;;5054791;28;20189;-69
2023/02/26 08:31:16;;;;;;;1.50;0.60;;;;;;;;;;5049365;28;20673;-68
2023/02/26 08:33:41;;;;;;;3.27;0.67;;;;;;;;;;5051622;28;20250;-69
2023/02/26 08:36:07;;;;;;;1.77;0.70;;;;;;;;;;5052447;28;21716;-69
2023/02/26 08:38:33;;;;;;;5.77;0.87;;;;;;;;;;5054762;28;20616;-70
2023/02/26 08:40:59;;;;;;;4.93;1.00;;;;;;;;;;5054595;28;20181;-69
2023/02/26 08:43:25;;;;;;;8.57;1.10;;;;;;;;;;5050449;28;20201;-69
2023/02/26 08:45:55;;;;;;;3.70;0.80;;;;;;;;;;5052395;28;20277;-70
2023/02/26 08:48:20;;;;;;;5.17;0.77;;;;;;;;;;5054623;28;20716;-68
2023/02/26 08:50:46;;;;;;;3.90;0.70;;;;;;;;;;5048746;28;20193;-69
2023/02/26 08:53:11;;;;;;;3.80;0.77;;;;;;;;;;5054165;28;20191;-69
2023/02/26 08:55:37;;;;;;;7.10;0.87;;;;;;;;;;5052451;28;20208;-68
2023/02/26 08:58:02;;;;;;;5.37;0.80;;;;;;;;;;5055133;28;20791;-68
2023/02/26 09:00:28;;;;;;;4.03;0.50;;;;;;;;;;5047029;28;20205;-68
2023/02/26 09:02:54;;;;;;;5.00;0.43;;;;;;;;;;5058723;28;20680;-69
2023/02/26 09:05:19;;;;;;;2.60;0.53;;;;;;;;;;5049203;28;20209;-68
2023/02/26 09:07:45;;;;;;;5.87;0.60;;;;;;;;;;5046786;28;20212;-68
2023/02/26 09:10:11;;;;;;;5.07;0.60;;;;;;;;;;5048138;28;20235;-69
2023/02/26 09:12:36;;;;;;;0.87;0.30;;;;;;;;;;5051822;28;20212;-68
2023/02/26 09:15:03;;;;;;;2.97;0.57;;;;;;;;;;5046983;28;20518;-68
2023/02/26 09:17:29;;;;;;;2.37;0.37;;;;;;;;;;5048980;28;20237;-68
2023/02/26 09:19:55;;;;;;;2.20;0.30;;;;;;;;;;5049113;28;20194;-68
2023/02/26 09:22:20;;;;;;;3.17;0.40;;;;;;;;;;5049848;28;20215;-68
2023/02/26 09:24:45;;;;;;;2.77;0.30;;;;;;;;;;5052288;28;20217;-68
2023/02/26 09:27:11;;;;;;;4.80;0.50;;;;;;;;;;5051217;28;20583;-68
2023/02/26 09:29:36;;;;;;;1.50;0.40;;;;;;;;;;5047779;28;20308;-68
2023/02/26 09:32:07;;;;;;;1.30;0.40;;;;;;;;;;5046208;28;20182;-68
2023/02/26 09:34:33;;;;;;;4.40;0.30;;;;;;;;;;5054043;28;20377;-68
2023/02/26 09:36:58;;;;;;;1.53;0.20;;;;;;;;;;5047954;28;20629;-69
2023/02/26 09:39:24;;;;;;;4.03;0.47;;;;;;;;;;5048654;28;20197;-68
2023/02/26 09:41:53;;;;;;;3.67;0.80;;;;;;;;;;5048273;28;20493;-68
2023/02/26 09:44:20;;;;;;;1.00;0.40;;;;;;;;;;5060268;28;20189;-68
2023/02/26 09:47:03;;;;;;;2.87;0.27;;;;;;;;;;5060108;28;20587;-70
2023/02/26 09:49:49;;;;;;;0.83;0.20;;;;;;;;;;5057098;28;20199;-68
2023/02/26 09:52:26;;;;;;;1.23;0.30;;;;;;;;;;5050334;28;20470;-68
2023/02/26 09:54:57;;;;;;;5.13;0.57;;;;;;;;;;5061986;28;20197;-68
2023/02/26 09:57:33;;;;;;;3.83;0.30;;;;;;;;;;5066401;28;20215;-68
2023/02/26 10:00:00;;;;;;;2.53;0.60;;;;;;;;;;5063024;28;20208;-68
2023/02/26 10:02:33;;;;;;;5.30;0.53;;;;;;;;;;5052678;28;20279;-68
2023/02/26 10:05:26;;;;;;;3.87;0.37;;;;;;;;;;5050440;28;20200;-68
2023/02/26 10:08:13;;;;;;;1.33;0.40;;;;;;;;;;5054674;28;20189;-68
2023/02/26 10:11:04;;;;;;;2.17;0.40;;;;;;;;;;5056317;28;20641;-68
2023/02/26 10:13:29;;;;;;;2.93;0.20;;;;;;;;;;5060796;28;20197;-68
2023/02/26 10:16:00;;;;;;;3.53;0.60;;;;;;;;;;5061013;28;20188;-68
2023/02/26 10:18:30;;;;;;;4.93;0.60;;;;;;;;;;5059207;28;20185;-69
2023/02/26 10:21:24;;;;;;;1.80;0.20;;;;;;;;;;5046360;28;20673;-68
2023/02/26 10:23:57;;;;;;;3.57;0.47;;;;;;;;;;5058104;28;20225;-69
2023/02/26 10:26:26;;;;;;;5.07;0.40;;;;;;;;;;5059298;28;20197;-68
2023/02/26 10:29:09;;;;;;;4.60;0.37;;;;;;;;;;5060303;28;20182;-69
2023/02/26 10:32:01;;;;;;;2.93;0.50;;;;;;;;;;5052014;28;20189;-68
2023/02/26 10:34:56;;;;;;;1.83;0.40;;;;;;;;;;5053829;28;20641;-69
2023/02/26 10:37:48;;;;;;;1.87;0.37;;;;;;;;;;5046915;28;20231;-68
2023/02/26 10:40:30;;;;;;;2.17;0.50;;;;;;;;;;5047166;28;20193;-68
2023/02/26 10:43:11;;;;;;;4.90;0.30;;;;;;;;;;5050096;28;20676;-68
2023/02/26 10:46:16;;;;;;;1.87;0.40;;;;;;;;;;5059989;28;20297;-71
2023/02/26 10:49:06;;;;;;;3.50;0.60;;;;;;;;;;5047794;28;20202;-70
2023/02/26 10:51:36;;;;;;;5.27;0.47;;;;;;;;;;5050099;28;20185;-69
2023/02/26 10:54:12;;;;;;;0.70;0.30;;;;;;;;;;5067091;28;20315;-70
2023/02/26 10:56:37;;;;;;;1.90;0.50;;;;;;;;;;5067163;28;20242;-70
2023/02/26 10:59:03;;;;;;;1.97;0.50;;;;;;;;;;5062741;28;20668;-68
2023/02/26 11:01:29;;;;;;;3.40;0.50;;;;;;;;;;5062308;28;20223;-68
2023/02/26 11:04:01;;;;;;;2.17;0.20;;;;;;;;;;5050833;28;20225;-70
2023/02/26 11:06:37;;;;;;;3.73;1.17;;;;;;;;;;5050520;28;20189;-69
2023/02/26 11:09:12;;;;;;;2.53;0.30;;;;;;;;;;5046348;28;20224;-69
2023/02/26 11:11:45;;;;;;;2.50;0.47;;;;;;;;;;5048000;28;20203;-69
2023/02/26 11:14:11;;;;;;;2.57;0.40;;;;;;;;;;5067371;28;20723;-68
2023/02/26 11:16:49;;;;;;;2.20;0.30;;;;;;;;;;5055597;28;20303;-69
2023/02/26 11:19:16;;;;;;;2.10;0.30;;;;;;;;;;5047785;28;20247;-68
2023/02/26 11:21:45;;;;;;;2.80;0.50;;;;;;;;;;5046918;28;20186;-69
2023/02/26 11:24:18;;;;;;;5.57;0.57;;;;;;;;;;5055775;28;20209;-69
2023/02/26 11:26:48;;;;;;;2.00;0.50;;;;;;;;;;5058050;28;20268;-74
2023/02/26 11:29:18;;;;;;;2.80;0.40;;;;;;;;;;5069456;28;20224;-69
2023/02/26 11:31:48;;;;;;;4.50;0.47;;;;;;;;;;5065238;28;20208;-69
2023/02/26 11:34:13;;;;;;;1.70;0.33;;;;;;;;;;5064145;28;20196;-68
2023/02/26 11:36:42;;;;;;;1.40;0.37;;;;;;;;;;5052981;28;20569;-69
2023/02/26 11:39:16;;;;;;;4.13;0.33;;;;;;;;;;5049527;28;20280;-69
2023/02/26 11:41:45;;;;;;;2.50;0.40;;;;;;;;;;5051494;28;20242;-69
2023/02/26 11:44:14;;;;;;;2.83;0.50;;;;;;;;;;5059206;28;20185;-70
2023/02/26 11:47:02;;;;;;;4.10;0.60;;;;;;;;;;5050412;28;20193;-68
2023/02/26 11:49:28;;;;;;;1.63;0.40;;;;;;;;;;5061425;28;20221;-70
2023/02/26 11:52:03;;;;;;;1.63;0.40;;;;;;;;;;5061131;28;20295;-69
2023/02/26 11:54:29;;;;;;;2.47;0.50;;;;;;;;;;5056048;28;20514;-68
2023/02/26 11:57:05;;;;;;;1.73;0.43;;;;;;;;;;5055285;28;20247;-69
2023/02/26 11:59:31;;;;;;;2.93;0.40;;;;;;;;;;5068256;28;20192;-68
2023/02/26 12:02:02;;;;;;;2.37;0.43;;;;;;;;;;5068214;28;20284;-68
2023/02/26 12:04:30;;;;;;;0.50;0.20;;;;;;;;;;5063852;28;20192;-68
2023/02/26 12:06:56;;;;;;;3.77;0.40;;;;;;;;;;5057489;28;20192;-69
2023/02/26 12:09:24;;;;;;;2.10;0.37;;;;;;;;;;5049706;28;20186;-68
2023/02/26 12:12:10;;;;;;;2.37;0.30;;;;;;;;;;5057919;28;20213;-69
2023/02/26 12:14:41;;;;;;;2.40;0.30;;;;;;;;;;5058824;28;20668;-69
2023/02/26 12:17:25;;;;;;;3.57;0.33;;;;;;;;;;5055138;28;20220;-68
2023/02/26 12:20:14;;;;;;;1.47;0.40;;;;;;;;;;5055234;28;20189;-67
2023/02/26 12:22:58;;;;;;;3.87;0.30;;;;;;;;;;5056962;28;20273;-68
2023/02/26 12:25:58;;;;;;;1.20;0.30;;;;;;;;;;5057963;28;20587;-68
2023/02/26 12:28:59;;;;;;;1.93;0.53;;;;;;;;;;5054151;28;20186;-68
2023/02/26 12:31:47;;;;;;;1.03;0.30;;;;;;;;;;5051964;28;20267;-68
2023/02/26 12:34:31;;;;;;;2.33;0.47;;;;;;;;;;5057795;28;20634;-68
2023/02/26 12:36:59;;;;;;;1.70;0.57;;;;;;;;;;5049596;28;20573;-68
2023/02/26 12:39:47;;;;;;;4.83;0.40;;;;;;;;;;5053854;28;20189;-69
2023/02/26 12:42:23;;;;;;;2.50;0.63;;;;;;;;;;5051429;28;20189;-68
2023/02/26 12:45:23;;;;;;;0.90;0.30;;;;;;;;;;5052653;28;20228;-68
2023/02/26 12:48:20;;;;;;;5.07;0.50;;;;;;;;;;5050605;28;20673;-69
2023/02/26 12:50:50;;;;;;;1.70;0.30;;;;;;;;;;5051265;28;20204;-68
2023/02/26 12:54:08;;;;;;;1.60;0.30;;;;;;;;;;5047044;28;20189;-68
2023/02/26 12:57:11;;;;;;;2.43;0.50;;;;;;;;;;5009427;28;20225;-69
2023/02/26 12:59:55;;;;;;;1.90;0.30;;;;;;;;;;5053892;28;21348;-69
2023/02/26 13:03:03;;;;;;;2.30;0.33;;;;;;;;;;5053239;28;21147;-68
2023/02/26 13:05:53;;;;;;;1.30;0.30;;;;;;;;;;5050885;28;20201;-67
2023/02/26 13:08:19;;;;;;;1.33;0.30;;;;;;;;;;5050854;28;20547;-67
2023/02/26 13:11:25;;;;;;;3.17;0.67;;;;;;;;;;5051555;28;20197;-67
2023/02/26 13:14:14;;;;;;;0.93;0.30;;;;;;;;;;5052951;28;20189;-71
2023/02/26 13:16:46;;;;;;;2.10;0.30;;;;;;;;;;5050054;28;20824;-68
2023/02/26 13:19:27;;;;;;;2.00;0.30;;;;;;;;;;5051115;28;20192;-68
2023/02/26 13:21:59;;;;;;;1.73;0.30;;;;;;;;;;5050761;28;20203;-68
2023/02/26 13:24:45;;;;;;;1.57;0.43;;;;;;;;;;5054474;28;20624;-68
2023/02/26 13:27:13;;;;;;;1.77;0.30;;;;;;;;;;5051722;28;20533;-68
2023/02/26 13:29:46;;;;;;;1.03;0.40;;;;;;;;;;5054301;28;20332;-68
2023/02/26 13:32:22;;;;;;;1.97;0.47;;;;;;;;;;5048260;28;20197;-69
2023/02/26 13:35:02;;;;;;;3.07;0.40;;;;;;;;;;5050928;28;20204;-68
2023/02/26 13:37:33;;;;;;;1.00;0.37;;;;;;;;;;5048145;28;20200;-68
2023/02/26 13:40:13;;;;;;;3.70;0.30;;;;;;;;;;5052075;28;20197;-68
2023/02/26 13:43:18;;;;;;;1.43;0.30;;;;;;;;;;5048636;28;20185;-71
2023/02/26 13:46:11;;;;;;;3.43;0.20;;;;;;;;;;5045871;28;20204;-68
2023/02/26 13:48:59;;;;;;;1.07;0.40;;;;;;;;;;5047531;28;20189;-68
2023/02/26 13:51:29;;;;;;;1.63;0.27;;;;;;;;;;5050979;28;20251;-67
2023/02/26 13:54:00;;;;;;;1.63;0.43;;;;;;;;;;5052358;28;20185;-68
2023/02/26 13:56:47;;;;;;;1.47;0.40;;;;;;;;;;5049609;28;20770;-68
2023/02/26 13:59:12;;;;;;;2.87;0.40;;;;;;;;;;5051200;28;20683;-68
2023/02/26 14:01:56;;;;;;;3.87;0.27;;;;;;;;;;5050352;28;20201;-68
2023/02/26 14:04:21;;;;;;;2.67;0.30;;;;;;;;;;5051367;28;20251;-68
2023/02/26 14:07:04;;;;;;;1.63;0.30;;;;;;;;;;5057350;28;20196;-68
2023/02/26 14:09:54;;;;;;;1.47;0.30;;;;;;;;;;5061485;28;20185;-68
2023/02/26 14:12:33;;;;;;;2.80;0.30;;;;;;;;;;5048610;28;20673;-69
2023/02/26 14:15:01;;;;;;;1.43;0.20;;;;;;;;;;5047610;28;20185;-68
2023/02/26 14:17:34;;;;;;;2.90;0.43;;;;;;;;;;5049973;28;20216;-67
2023/02/26 14:20:22;;;;;;;1.53;0.30;;;;;;;;;;5047753;28;20193;-67
2023/02/26 14:23:08;;;;;;;1.93;0.20;;;;;;;;;;5057142;28;20682;-68
2023/02/26 14:25:38;;;;;;;1.80;0.30;;;;;;;;;;5059300;28;20668;-67
2023/02/26 14:28:28;;;;;;;2.60;0.70;;;;;;;;;;5063080;28;20227;-68
2023/02/26 14:31:14;;;;;;;1.47;0.30;;;;;;;;;;5065615;28;20228;-67
2023/02/26 14:33:46;;;;;;;5.27;0.50;;;;;;;;;;5050451;28;20211;-67
2023/02/26 14:36:40;;;;;;;0.50;0.10;;;;;;;;;;5047260;28;20229;-67
2023/02/26 14:39:21;;;;;;;1.33;0.53;;;;;;;;;;5053990;28;20670;-68
2023/02/26 14:41:47;;;;;;;2.13;0.30;;;;;;;;;;5051854;28;20197;-68
2023/02/26 14:44:21;;;;;;;0.80;0.30;;;;;;;;;;5051328;28;20247;-67
2023/02/26 14:46:48;;;;;;;2.20;0.37;;;;;;;;;;5051190;28;20221;-67
2023/02/26 14:49:24;;;;;;;3.27;0.20;;;;;;;;;;5049711;28;20184;-68
2023/02/26 14:52:24;;;;;;;2.43;0.23;;;;;;;;;;5054687;28;20727;-68
2023/02/26 14:55:13;;;;;;;3.00;0.40;;;;;;;;;;5057698;28;20478;-67
2023/02/26 14:58:07;;;;;;;0.30;0.20;;;;;;;;;;5051845;28;20213;-68
2023/02/26 15:00:42;;;;;;;2.17;0.30;;;;;;;;;;5049625;28;20220;-68
2023/02/26 15:03:21;;;;;;;1.07;0.20;;;;;;;;;;5051058;28;20192;-66
2023/02/26 15:06:23;;;;;;;1.77;0.30;;;;;;;;;;5055647;28;20254;-67
2023/02/26 15:09:11;;;;;;;3.17;0.40;;;;;;;;;;5050679;28;20407;-67
2023/02/26 15:12:13;;;;;;;1.70;0.20;;;;;;;;;;5061375;28;20197;-67
2023/02/26 15:15:00;;;;;;;1.10;0.27;;;;;;;;;;5048388;28;20975;-67